Time;durP1;ratioP1;P1;durP2;ratioP2;P2;SDS_P1;SDS_P2;PMS_P1;PMS_P2;Temp;Humidity;BMP_temperature;BMP_pressure;BME280_temperature;BME280_humidity;BME280_pressure;Samples;Min_cycle;Max_cycle;Signal;HPM_P1;HPM_P2
2024/02/20 00:00:11;;;;;;;18.63;4.50;;;6.90;99.90;;;;;;6186851;28;20065;-90
2024/02/20 00:03:13;;;;;;;18.92;4.30;;;6.80;99.90;;;;;;6194979;28;20050;-90
2024/02/20 00:06:15;;;;;;;22.92;4.68;;;6.70;99.90;;;;;;6178954;28;20050;-91
2024/02/20 00:09:17;;;;;;;22.13;4.72;;;6.70;99.90;;;;;;6201340;28;20054;-91
2024/02/20 00:12:20;;;;;;;19.35;4.68;;;6.70;99.90;;;;;;6177265;28;20050;-91
2024/02/20 00:15:22;;;;;;;21.45;4.05;;;6.60;99.90;;;;;;6186507;28;20054;-91
2024/02/20 00:18:24;;;;;;;16.60;4.18;;;6.70;99.90;;;;;;6177786;28;20046;-91
2024/02/20 00:21:26;;;;;;;20.60;4.30;;;6.60;99.90;;;;;;6205926;28;20057;-90
2024/02/20 00:24:28;;;;;;;20.63;4.35;;;6.60;99.90;;;;;;6184285;28;20057;-91
2024/02/20 00:27:31;;;;;;;20.30;4.63;;;6.50;99.90;;;;;;6177448;28;20061;-89
2024/02/20 00:30:33;;;;;;;25.27;4.85;;;6.50;99.90;;;;;;6171715;28;20054;-89
2024/02/20 00:33:35;;;;;;;20.08;4.38;;;6.50;99.90;;;;;;6176863;28;20426;-89
2024/02/20 00:36:36;;;;;;;19.63;4.22;;;6.50;99.90;;;;;;6191741;28;20541;-89
2024/02/20 00:39:38;;;;;;;22.20;4.28;;;6.50;99.90;;;;;;6189769;28;20054;-88
2024/02/20 00:42:40;;;;;;;19.65;4.20;;;6.50;99.90;;;;;;6176602;28;20058;-89
2024/02/20 00:45:41;;;;;;;17.90;3.72;;;6.50;99.90;;;;;;6180208;28;20054;-90
2024/02/20 00:48:44;;;;;;;22.98;4.43;;;6.50;99.90;;;;;;6180191;28;20050;-89
2024/02/20 00:51:46;;;;;;;19.10;3.70;;;6.60;99.90;;;;;;6180560;28;20073;-89
2024/02/20 00:54:48;;;;;;;20.95;3.67;;;6.70;99.90;;;;;;6193592;28;20054;-88
2024/02/20 00:57:49;;;;;;;22.33;4.57;;;6.70;99.90;;;;;;6199254;28;20081;-88
2024/02/20 01:00:53;;;;;;;23.70;4.40;;;6.80;99.90;;;;;;6164601;28;20082;-88
2024/02/20 01:03:55;;;;;;;21.05;4.35;;;6.80;99.90;;;;;;6197800;28;20055;-87
2024/02/20 01:06:57;;;;;;;21.38;4.13;;;6.80;99.90;;;;;;6198067;28;20058;-89
2024/02/20 01:09:58;;;;;;;23.92;4.05;;;6.80;99.90;;;;;;6186118;28;20149;-89
2024/02/20 01:13:00;;;;;;;16.00;3.85;;;6.80;99.90;;;;;;6195515;28;20046;-90
2024/02/20 01:16:02;;;;;;;20.65;3.67;;;6.80;99.90;;;;;;6191420;28;20050;-89
2024/02/20 01:19:03;;;;;;;24.75;4.63;;;6.80;99.90;;;;;;6181549;28;20177;-89
2024/02/20 01:22:06;;;;;;;20.55;4.57;;;6.90;99.90;;;;;;6183123;28;20414;-89
2024/02/20 01:25:08;;;;;;;25.52;4.22;;;6.80;99.90;;;;;;6187908;28;20081;-89
2024/02/20 01:28:10;;;;;;;21.30;4.13;;;6.90;99.90;;;;;;6202861;28;20074;-89
2024/02/20 01:31:11;;;;;;;25.30;4.40;;;6.90;99.90;;;;;;6192395;28;20049;-89
2024/02/20 01:34:13;;;;;;;20.88;3.97;;;7.00;99.90;;;;;;6176183;28;20051;-88
2024/02/20 01:37:15;;;;;;;21.85;4.45;;;7.10;99.90;;;;;;6185395;28;20062;-88
2024/02/20 01:40:16;;;;;;;26.10;4.45;;;7.20;99.90;;;;;;6191246;28;20082;-88
2024/02/20 01:43:18;;;;;;;23.38;4.38;;;7.30;99.90;;;;;;6180305;28;20050;-88
2024/02/20 01:46:21;;;;;;;26.27;4.32;;;7.40;99.90;;;;;;6188534;28;20105;-89
2024/02/20 01:49:23;;;;;;;23.58;4.40;;;7.40;99.90;;;;;;6202057;28;20049;-89
2024/02/20 01:52:25;;;;;;;23.30;4.20;;;7.40;99.90;;;;;;6188158;28;20768;-88
2024/02/20 01:55:27;;;;;;;24.13;4.63;;;7.50;99.90;;;;;;6200689;28;20057;-89
2024/02/20 01:58:28;;;;;;;18.65;3.38;;;7.50;99.90;;;;;;6175617;28;20193;-89
2024/02/20 02:01:30;;;;;;;22.30;4.40;;;7.50;99.90;;;;;;6204401;28;20062;-88
2024/02/20 02:04:33;;;;;;;18.90;3.90;;;7.40;99.90;;;;;;6180378;28;20058;-88
2024/02/20 02:07:35;;;;;;;24.52;4.50;;;7.50;99.90;;;;;;6204090;28;20062;-89
2024/02/20 02:10:36;;;;;;;24.35;4.72;;;7.40;99.90;;;;;;6179886;28;20050;-88
2024/02/20 02:13:38;;;;;;;21.70;4.72;;;7.30;99.90;;;;;;6195482;28;20223;-89
2024/02/20 02:16:40;;;;;;;25.98;4.70;;;7.30;99.90;;;;;;6179150;28;20046;-88
2024/02/20 02:19:41;;;;;;;35.70;5.68;;;7.30;99.90;;;;;;6200160;28;20057;-88
2024/02/20 02:22:43;;;;;;;24.48;4.50;;;7.30;99.90;;;;;;6201411;28;20151;-88
2024/02/20 02:25:45;;;;;;;27.77;4.50;;;7.30;99.90;;;;;;6203161;28;20061;-90
2024/02/20 02:28:47;;;;;;;28.50;4.78;;;7.30;99.90;;;;;;6184520;28;20165;-89
2024/02/20 02:31:49;;;;;;;24.73;4.93;;;7.20;99.90;;;;;;6177729;28;20046;-89
2024/02/20 02:34:51;;;;;;;27.80;4.63;;;7.20;99.90;;;;;;6197629;28;20050;-89
2024/02/20 02:37:56;;;;;;;23.20;5.25;;;7.20;99.90;;;;;;6202786;28;20062;-89
2024/02/20 02:40:59;;;;;;;35.42;5.78;;;7.20;99.90;;;;;;6179494;28;20419;-89
2024/02/20 02:44:01;;;;;;;29.25;5.15;;;7.20;99.90;;;;;;6180155;28;20047;-89
2024/02/20 02:47:03;;;;;;;28.70;5.88;;;7.30;99.90;;;;;;6202816;28;20054;-89
2024/02/20 02:50:05;;;;;;;26.52;4.78;;;7.30;99.90;;;;;;6179290;28;20051;-89
2024/02/20 02:53:07;;;;;;;32.72;5.32;;;7.30;99.90;;;;;;6195606;28;20410;-89
2024/02/20 02:56:09;;;;;;;31.08;5.53;;;7.40;99.90;;;;;;6202562;28;20070;-88
2024/02/20 02:59:11;;;;;;;34.33;4.75;;;7.30;99.90;;;;;;6191076;28;20061;-89
2024/02/20 03:02:13;;;;;;;28.42;5.43;;;7.40;99.90;;;;;;6179117;28;20058;-90
2024/02/20 03:05:17;;;;;;;31.80;5.53;;;7.40;99.90;;;;;;6201857;28;20498;-89
2024/02/20 03:08:19;;;;;;;28.00;4.82;;;7.40;99.90;;;;;;6180254;28;20053;-89
2024/02/20 03:11:20;;;;;;;26.75;4.95;;;7.30;99.90;;;;;;6202205;28;20050;-89
2024/02/20 03:14:22;;;;;;;26.45;4.55;;;7.20;99.90;;;;;;6188472;28;20395;-90
2024/02/20 03:17:25;;;;;;;33.10;5.10;;;7.20;99.90;;;;;;6177752;28;20047;-89
2024/02/20 03:20:27;;;;;;;22.80;4.45;;;7.20;99.90;;;;;;6200696;28;20051;-90
2024/02/20 03:23:28;;;;;;;28.77;4.97;;;7.10;99.90;;;;;;6182762;28;20077;-90
2024/02/20 03:26:30;;;;;;;25.50;4.57;;;7.10;99.90;;;;;;6201620;28;20458;-89
2024/02/20 03:29:31;;;;;;;24.08;4.75;;;7.00;99.90;;;;;;6168716;28;20054;-90
2024/02/20 03:32:33;;;;;;;31.33;5.18;;;6.90;99.90;;;;;;6178848;28;20051;-90
2024/02/20 03:35:36;;;;;;;26.27;4.80;;;6.90;99.90;;;;;;6197769;28;20067;-89
2024/02/20 03:38:37;;;;;;;29.30;4.65;;;6.80;99.90;;;;;;6179128;28;20054;-89
2024/02/20 03:41:39;;;;;;;30.38;5.00;;;6.90;99.90;;;;;;6201444;28;20050;-89
2024/02/20 03:44:40;;;;;;;35.08;5.85;;;6.90;99.90;;;;;;6173186;28;20054;-89
2024/02/20 03:47:42;;;;;;;34.20;4.93;;;6.80;99.90;;;;;;6202276;28;20058;-88
2024/02/20 03:50:44;;;;;;;32.67;5.30;;;6.80;99.90;;;;;;6183856;28;20518;-88
2024/02/20 03:53:46;;;;;;;39.30;5.40;;;6.90;99.90;;;;;;6178408;28;20054;-87
2024/02/20 03:56:48;;;;;;;34.97;5.47;;;6.90;99.90;;;;;;6200810;28;20061;-87
2024/02/20 03:59:49;;;;;;;33.88;5.72;;;6.90;99.90;;;;;;6173471;28;20051;-88
2024/02/20 04:02:53;;;;;;;32.75;5.35;;;7.00;99.90;;;;;;6183240;28;20055;-88
2024/02/20 04:05:55;;;;;;;42.03;6.05;;;7.00;99.90;;;;;;6178190;28;20058;-89
2024/02/20 04:09:03;;;;;;;32.60;5.35;;;7.10;99.90;;;;;;6185648;28;20137;-89
2024/02/20 04:12:05;;;;;;;35.95;5.25;;;7.10;99.90;;;;;;6181372;28;20051;-89
2024/02/20 04:15:06;;;;;;;28.13;4.97;;;7.10;99.90;;;;;;6174337;28;20051;-88
2024/02/20 04:18:08;;;;;;;37.08;6.07;;;7.00;99.90;;;;;;6192266;28;20054;-88
2024/02/20 04:21:10;;;;;;;33.00;5.40;;;7.10;99.90;;;;;;6179622;28;20055;-89
2024/02/20 04:24:11;;;;;;;30.02;5.45;;;7.10;99.90;;;;;;6200364;28;20057;-88
2024/02/20 04:27:13;;;;;;;34.28;5.72;;;7.00;99.90;;;;;;6196094;28;20517;-89
2024/02/20 04:30:15;;;;;;;37.55;5.25;;;7.10;99.90;;;;;;6161421;28;20051;-88
2024/02/20 04:33:16;;;;;;;32.00;5.45;;;7.00;99.90;;;;;;6176877;28;20047;-88
2024/02/20 04:36:18;;;;;;;36.67;5.30;;;7.10;99.90;;;;;;6201252;28;20054;-88
2024/02/20 04:39:20;;;;;;;31.58;4.75;;;7.00;99.90;;;;;;6176458;28;20046;-88
2024/02/20 04:42:22;;;;;;;34.20;5.25;;;7.10;99.90;;;;;;6192319;28;20487;-88
2024/02/20 04:45:24;;;;;;;29.85;5.03;;;7.00;99.90;;;;;;6193600;28;20429;-87
2024/02/20 04:48:25;;;;;;;29.85;4.72;;;7.00;99.90;;;;;;6195432;28;20513;-86
2024/02/20 04:51:27;;;;;;;37.53;5.50;;;6.90;99.90;;;;;;6178937;28;20101;-87
2024/02/20 04:54:29;;;;;;;29.90;5.40;;;6.90;99.90;;;;;;6176758;28;20066;-89
2024/02/20 04:57:31;;;;;;;33.72;5.60;;;6.80;99.90;;;;;;6179789;28;20487;-87
2024/02/20 05:00:32;;;;;;;25.23;4.95;;;6.80;99.90;;;;;;6190854;28;20057;-87
2024/02/20 05:03:34;;;;;;;29.77;4.80;;;6.90;99.90;;;;;;6187872;28;20406;-87
2024/02/20 05:06:35;;;;;;;34.30;4.97;;;6.80;99.90;;;;;;6178934;28;20086;-87
2024/02/20 05:09:37;;;;;;;25.27;4.78;;;6.80;99.90;;;;;;6199329;28;20430;-87
2024/02/20 05:12:39;;;;;;;36.05;4.68;;;6.70;99.90;;;;;;6176025;28;20134;-86
2024/02/20 05:15:40;;;;;;;38.20;5.28;;;6.70;99.90;;;;;;6195687;28;20057;-87
2024/02/20 05:18:42;;;;;;;30.85;5.63;;;6.70;99.90;;;;;;6176511;28;20800;-87
2024/02/20 05:21:44;;;;;;;27.85;4.63;;;6.70;99.90;;;;;;6187656;28;20046;-86
2024/02/20 05:24:45;;;;;;;40.60;5.53;;;6.70;99.90;;;;;;6201556;28;20050;-86
2024/02/20 05:27:47;;;;;;;36.03;5.22;;;6.70;99.90;;;;;;6182846;28;20054;-87
2024/02/20 05:30:49;;;;;;;35.33;5.25;;;6.70;99.90;;;;;;6188939;28;20062;-86
2024/02/20 05:33:50;;;;;;;35.83;5.43;;;6.70;99.90;;;;;;6179288;28;20047;-86
2024/02/20 05:36:52;;;;;;;36.53;5.63;;;6.70;99.90;;;;;;6178802;28;20065;-91
2024/02/20 05:39:54;;;;;;;32.30;4.53;;;6.60;99.90;;;;;;6177050;28;20051;-87
2024/02/20 05:42:56;;;;;;;31.33;4.68;;;6.60;99.90;;;;;;6200840;28;20050;-83
2024/02/20 05:45:57;;;;;;;31.23;4.47;;;6.60;99.90;;;;;;6198012;28;20054;-93
2024/02/20 05:48:59;;;;;;;29.10;4.55;;;6.60;99.90;;;;;;6194431;28;20387;-91
2024/02/20 05:52:02;;;;;;;28.77;4.85;;;6.50;99.90;;;;;;6186258;28;20057;-91
2024/02/20 05:55:03;;;;;;;36.10;4.93;;;6.50;99.90;;;;;;6194335;28;20514;-90
2024/02/20 05:58:05;;;;;;;36.58;5.68;;;6.40;99.90;;;;;;6198129;28;20476;-88
2024/02/20 06:01:08;;;;;;;30.80;5.18;;;6.30;99.90;;;;;;6203158;28;20054;-91
2024/02/20 06:04:10;;;;;;;30.42;5.47;;;6.30;99.90;;;;;;6189150;28;20051;-91
2024/02/20 06:07:12;;;;;;;38.17;5.28;;;6.30;99.90;;;;;;6202037;28;20057;-92
2024/02/20 06:10:13;;;;;;;34.90;5.22;;;6.30;99.90;;;;;;6192917;28;20129;-91
2024/02/20 06:13:15;;;;;;;37.47;6.30;;;6.30;99.90;;;;;;6177593;28;20078;-93
2024/02/20 06:16:17;;;;;;;36.28;5.03;;;6.30;99.90;;;;;;6204494;28;20145;-92
2024/02/20 06:19:19;;;;;;;34.65;5.28;;;6.20;99.90;;;;;;6195428;28;20050;-91
2024/02/20 06:22:20;;;;;;;27.27;5.15;;;6.30;99.90;;;;;;6195583;28;20049;-91
2024/02/20 06:25:22;;;;;;;36.15;5.35;;;6.30;99.90;;;;;;6180890;28;20433;-91
2024/02/20 06:28:24;;;;;;;29.73;5.13;;;6.30;99.90;;;;;;6180939;28;20558;-92
2024/02/20 06:31:26;;;;;;;28.13;5.07;;;6.20;99.90;;;;;;6179697;28;20106;-92
2024/02/20 06:34:28;;;;;;;35.25;4.90;;;6.20;99.90;;;;;;6195707;28;20097;-92
2024/02/20 06:37:30;;;;;;;31.45;5.18;;;6.20;99.90;;;;;;6187421;28;20076;-92
2024/02/20 06:40:31;;;;;;;35.75;6.07;;;6.10;99.90;;;;;;6188960;28;20495;-92
2024/02/20 06:43:33;;;;;;;34.85;5.18;;;6.10;99.90;;;;;;6179472;28;20809;-91
2024/02/20 06:46:35;;;;;;;38.33;5.30;;;6.10;99.90;;;;;;6201877;28;20046;-91
2024/02/20 06:49:37;;;;;;;33.33;5.10;;;6.00;99.90;;;;;;6204062;28;20054;-92
2024/02/20 06:52:38;;;;;;;29.63;4.40;;;6.00;99.90;;;;;;6197479;28;20483;-91
2024/02/20 06:55:40;;;;;;;30.45;5.30;;;6.10;99.90;;;;;;6181912;28;20083;-91
2024/02/20 06:58:42;;;;;;;34.03;5.45;;;6.00;99.90;;;;;;6194227;28;20046;-91
2024/02/20 07:01:44;;;;;;;28.13;4.97;;;6.00;99.90;;;;;;6180339;28;20047;-90
2024/02/20 07:04:46;;;;;;;31.02;5.32;;;6.00;99.90;;;;;;6202757;28;20050;-91
2024/02/20 07:07:48;;;;;;;29.35;4.88;;;6.00;99.90;;;;;;6191003;28;20061;-91
2024/02/20 07:10:50;;;;;;;31.55;5.40;;;5.90;99.90;;;;;;6186787;28;20046;-91
2024/02/20 07:13:51;;;;;;;43.88;6.25;;;6.00;99.90;;;;;;6181362;28;20723;-90
2024/02/20 07:16:53;;;;;;;29.73;6.25;;;6.00;99.90;;;;;;6200139;28;20062;-92
2024/02/20 07:19:57;;;;;;;26.10;5.07;;;6.00;99.90;;;;;;6179135;28;20483;-90
2024/02/20 07:23:00;;;;;;;28.15;5.15;;;6.00;99.90;;;;;;6203080;28;20081;-89
2024/02/20 07:26:01;;;;;;;30.95;6.00;;;6.10;99.90;;;;;;6177143;28;20058;-88
2024/02/20 07:29:03;;;;;;;27.95;5.28;;;6.20;99.90;;;;;;6193165;28;20072;-92
2024/02/20 07:32:04;;;;;;;31.65;5.95;;;6.20;99.90;;;;;;6181607;28;20047;-91
2024/02/20 07:35:08;;;;;;;34.58;5.53;;;6.30;99.90;;;;;;6188296;28;20066;-92
2024/02/20 07:38:10;;;;;;;26.67;5.53;;;6.40;99.90;;;;;;6200460;28;20062;-92
2024/02/20 07:41:12;;;;;;;23.13;4.95;;;6.40;99.90;;;;;;6199874;28;20058;-92
2024/02/20 07:44:13;;;;;;;30.75;5.78;;;6.50;99.90;;;;;;6187243;28;20043;-92
2024/02/20 07:47:15;;;;;;;30.10;6.00;;;6.50;99.90;;;;;;6186395;28;20398;-90
2024/02/20 07:50:17;;;;;;;29.80;5.60;;;6.60;99.90;;;;;;6178682;28;20051;-90
2024/02/20 07:53:19;;;;;;;31.40;5.47;;;6.70;99.90;;;;;;6186916;28;20074;-88
2024/02/20 07:56:21;;;;;;;28.65;5.65;;;6.80;99.90;;;;;;6177581;28;20058;-92
2024/02/20 07:59:22;;;;;;;30.63;5.82;;;6.80;99.90;;;;;;6175206;28;20057;-91
2024/02/20 08:02:24;;;;;;;23.65;4.97;;;6.90;99.90;;;;;;6176605;28;20055;-93
2024/02/20 08:05:27;;;;;;;26.60;5.53;;;6.90;99.90;;;;;;6192460;28;20054;-90
2024/02/20 08:08:29;;;;;;;29.13;5.95;;;7.00;99.90;;;;;;6187112;28;20055;-89
2024/02/20 08:11:31;;;;;;;28.17;6.00;;;7.00;99.90;;;;;;6196240;28;20050;-89
2024/02/20 08:14:32;;;;;;;24.17;5.93;;;7.10;99.90;;;;;;6177948;28;20066;-88
2024/02/20 08:17:34;;;;;;;22.35;4.93;;;7.30;99.90;;;;;;6187651;28;20065;-82
2024/02/20 08:20:42;;;;;;;20.80;5.18;;;7.30;99.90;;;;;;6170613;28;20110;-83
2024/02/20 08:23:44;;;;;;;28.52;5.47;;;7.50;99.90;;;;;;6174863;28;20055;-84
2024/02/20 08:26:45;;;;;;;26.70;6.03;;;7.60;99.90;;;;;;6175759;28;20179;-82
2024/02/20 08:29:48;;;;;;;25.80;5.30;;;7.70;99.90;;;;;;6166919;28;20418;-82
2024/02/20 08:32:49;;;;;;;22.02;4.40;;;7.80;99.90;;;;;;6180156;28;20474;-83
2024/02/20 08:35:51;;;;;;;21.02;4.57;;;7.90;99.90;;;;;;6190751;28;20065;-81
2024/02/20 08:38:53;;;;;;;25.92;4.53;;;8.00;99.90;;;;;;6183636;28;20058;-79
2024/02/20 08:41:55;;;;;;;24.88;4.72;;;8.00;99.90;;;;;;6172831;28;20498;-82
2024/02/20 08:44:57;;;;;;;25.40;5.32;;;8.10;99.90;;;;;;6159836;28;20103;-81
2024/02/20 08:48:00;;;;;;;26.27;4.55;;;8.20;99.90;;;;;;6179693;28;20081;-80
2024/02/20 08:51:02;;;;;;;29.83;4.88;;;8.30;99.90;;;;;;6186642;28;20080;-81
2024/02/20 08:54:04;;;;;;;23.65;4.40;;;8.30;99.90;;;;;;6177057;28;20065;-84
2024/02/20 08:57:05;;;;;;;28.60;5.00;;;8.30;99.90;;;;;;6179748;28;20434;-90
2024/02/20 09:00:11;;;;;;;25.15;5.18;;;8.30;99.90;;;;;;6174827;28;20058;-87
2024/02/20 09:03:13;;;;;;;30.15;5.15;;;8.40;99.90;;;;;;6192522;28;20055;-89
2024/02/20 09:06:15;;;;;;;23.40;4.25;;;8.50;99.90;;;;;;6195797;28;20081;-89
2024/02/20 09:09:17;;;;;;;27.42;4.63;;;8.50;99.90;;;;;;6172766;28;20892;-88
2024/02/20 09:12:19;;;;;;;17.60;4.63;;;8.60;99.90;;;;;;6195347;28;20473;-86
2024/02/20 09:15:20;;;;;;;18.60;4.50;;;8.60;99.90;;;;;;6171071;28;20110;-90
2024/02/20 09:18:24;;;;;;;18.48;4.70;;;8.60;99.90;;;;;;6197681;28;20055;-89
2024/02/20 09:21:26;;;;;;;19.38;5.40;;;8.60;99.90;;;;;;6222077;28;20062;-91
2024/02/20 09:24:28;;;;;;;21.13;4.90;;;8.70;99.90;;;;;;6199266;28;20042;-90
2024/02/20 09:27:30;;;;;;;25.17;5.50;;;8.70;99.90;;;;;;6188529;28;20047;-90
2024/02/20 09:30:31;;;;;;;21.02;5.82;;;8.80;99.90;;;;;;6160479;28;20066;-90
2024/02/20 09:33:33;;;;;;;21.13;4.95;;;8.80;99.90;;;;;;6174141;28;20535;-90
2024/02/20 09:36:35;;;;;;;21.90;6.43;;;8.80;99.90;;;;;;6188468;28;20529;-82
2024/02/20 09:39:37;;;;;;;22.35;5.28;;;8.80;99.90;;;;;;6191074;28;20394;-85
2024/02/20 09:42:38;;;;;;;18.42;4.97;;;8.90;99.90;;;;;;6194599;28;20193;-89
2024/02/20 09:45:45;;;;;;;20.48;5.45;;;9.00;99.90;;;;;;6165958;28;20065;-82
2024/02/20 09:48:52;;;;;;;21.80;6.32;;;9.10;99.90;;;;;;6185414;28;20641;-82
2024/02/20 09:51:55;;;;;;;23.38;5.93;;;9.10;99.90;;;;;;6171858;28;20422;-82
2024/02/20 09:54:56;;;;;;;17.58;4.65;;;9.30;99.90;;;;;;6196678;28;20137;-89
2024/02/20 09:57:58;;;;;;;22.90;4.95;;;9.30;99.90;;;;;;6163615;28;20062;-87
2024/02/20 10:01:00;;;;;;;19.83;5.00;;;9.50;99.90;;;;;;6193884;28;20603;-81
2024/02/20 10:04:02;;;;;;;19.50;4.32;;;9.50;99.90;;;;;;6169873;28;20051;-92
2024/02/20 10:07:06;;;;;;;19.50;4.38;;;9.70;99.90;;;;;;6205852;28;20137;-93
2024/02/20 10:10:08;;;;;;;18.40;3.78;;;9.90;99.90;;;;;;6197440;28;20058;-84
2024/02/20 10:13:10;;;;;;;16.17;3.60;;;9.90;99.90;;;;;;6162848;28;20604;-81
2024/02/20 10:16:14;;;;;;;20.83;5.00;;;10.00;99.90;;;;;;6197876;28;20141;-82
2024/02/20 10:19:16;;;;;;;15.48;3.65;;;10.00;99.90;;;;;;6177493;28;20058;-83
2024/02/20 10:22:17;;;;;;;17.73;3.55;;;10.10;99.90;;;;;;6198315;28;20050;-82
2024/02/20 10:25:19;;;;;;;15.55;3.42;;;10.00;99.90;;;;;;6176499;28;20050;-91
2024/02/20 10:28:21;;;;;;;20.63;3.70;;;9.90;99.90;;;;;;6181175;28;20058;-88
2024/02/20 10:31:22;;;;;;;20.60;4.30;;;10.00;99.90;;;;;;6180105;28;20402;-91
2024/02/20 10:34:24;;;;;;;14.38;3.15;;;10.10;99.90;;;;;;6204413;28;20113;-93
2024/02/20 10:37:27;;;;;;;10.80;2.75;;;10.30;99.90;;;;;;6186214;28;20091;-86
2024/02/20 10:40:30;;;;;;;16.90;3.35;;;10.70;99.90;;;;;;6204385;28;20054;-87
2024/02/20 10:43:32;;;;;;;27.45;4.85;;;10.90;99.90;;;;;;6184237;28;20094;-92
2024/02/20 10:46:34;;;;;;;13.77;3.45;;;11.10;99.90;;;;;;6182354;28;20054;-89
2024/02/20 10:49:36;;;;;;;16.77;3.10;;;10.90;99.90;;;;;;6200311;28;20060;-92
2024/02/20 10:52:37;;;;;;;19.77;3.58;;;11.00;99.90;;;;;;6180281;28;20059;-89
2024/02/20 10:55:39;;;;;;;16.08;3.17;;;10.80;99.90;;;;;;6198734;28;20444;-86
2024/02/20 10:58:41;;;;;;;19.00;2.90;;;10.80;99.90;;;;;;6169853;28;20421;-91
2024/02/20 11:01:45;;;;;;;15.27;2.75;;;10.60;99.90;;;;;;6174244;28;20525;-92
2024/02/20 11:04:47;;;;;;;11.90;2.75;;;10.70;99.90;;;;;;6198455;28;20057;-89
2024/02/20 11:07:48;;;;;;;15.10;2.80;;;10.60;99.90;;;;;;6174657;28;20051;-87
2024/02/20 11:10:50;;;;;;;18.75;3.05;;;10.50;99.90;;;;;;6202638;28;20150;-89
2024/02/20 11:13:52;;;;;;;18.83;3.45;;;10.60;99.90;;;;;;6182775;28;20062;-85
2024/02/20 11:16:54;;;;;;;14.65;3.53;;;10.70;99.90;;;;;;6181383;28;20140;-84
2024/02/20 11:19:56;;;;;;;17.38;3.65;;;10.70;99.90;;;;;;6174454;28;20560;-86
2024/02/20 11:22:57;;;;;;;20.48;4.28;;;10.80;99.90;;;;;;6199486;28;20513;-84
2024/02/20 11:25:59;;;;;;;20.50;4.35;;;10.60;99.90;;;;;;6171757;28;20083;-87
2024/02/20 11:29:01;;;;;;;20.27;3.85;;;10.50;99.90;;;;;;6163471;28;20054;-86
2024/02/20 11:32:02;;;;;;;17.17;4.00;;;10.60;99.90;;;;;;6195382;28;20482;-86
2024/02/20 11:35:04;;;;;;;17.33;4.35;;;10.60;99.90;;;;;;6174077;28;20066;-87
2024/02/20 11:38:09;;;;;;;20.13;4.30;;;10.70;99.90;;;;;;6198836;28;20133;-90
2024/02/20 11:41:11;;;;;;;14.40;4.00;;;10.90;99.90;;;;;;6171805;28;20073;-85
2024/02/20 11:44:14;;;;;;;16.98;4.03;;;11.00;99.90;;;;;;6176399;28;20055;-88
2024/02/20 11:47:16;;;;;;;15.77;3.63;;;11.10;99.90;;;;;;6196034;28;20497;-80
2024/02/20 11:50:18;;;;;;;15.48;3.30;;;11.30;99.90;;;;;;6179039;28;20054;-80
2024/02/20 11:53:20;;;;;;;18.10;3.50;;;11.30;99.90;;;;;;6172511;28;20051;-81
2024/02/20 11:56:21;;;;;;;17.17;3.72;;;11.00;99.90;;;;;;6195035;28;20392;-82
2024/02/20 11:59:23;;;;;;;13.25;3.42;;;10.90;99.90;;;;;;6154053;28;20062;-80
2024/02/20 12:02:25;;;;;;;13.65;3.95;;;10.90;99.90;;;;;;6195012;28;20046;-82
2024/02/20 12:05:26;;;;;;;10.93;3.53;;;11.00;99.90;;;;;;6197710;28;20050;-82
2024/02/20 12:08:28;;;;;;;8.02;2.60;;;11.00;99.90;;;;;;6195989;28;20046;-84
2024/02/20 12:11:30;;;;;;;8.75;2.63;;;11.10;99.90;;;;;;6195814;28;20617;-85
2024/02/20 12:14:32;;;;;;;10.40;2.50;;;11.10;99.90;;;;;;6163606;28;20145;-87
2024/02/20 12:17:34;;;;;;;7.25;2.30;;;11.30;99.90;;;;;;6197950;28;20050;-93
2024/02/20 12:20:35;;;;;;;7.53;1.88;;;11.40;99.90;;;;;;6201881;28;20054;-92
2024/02/20 12:23:37;;;;;;;6.65;1.60;;;11.30;99.90;;;;;;6178751;28;20499;-88
2024/02/20 12:26:39;;;;;;;7.18;1.58;;;11.40;99.90;;;;;;6195722;28;20077;-90
2024/02/20 12:29:41;;;;;;;4.47;1.50;;;11.50;99.90;;;;;;6157661;28;20062;-89
2024/02/20 12:32:42;;;;;;;3.75;1.52;;;11.70;99.90;;;;;;6194715;28;20054;-89
2024/02/20 12:35:47;;;;;;;9.82;2.28;;;11.60;99.90;;;;;;6179749;28;20058;-91
2024/02/20 12:38:54;;;;;;;6.60;1.63;;;11.60;99.90;;;;;;6197369;28;20056;-88
2024/02/20 12:41:55;;;;;;;5.80;1.88;;;11.50;99.90;;;;;;6171966;28;20058;-87
2024/02/20 12:44:57;;;;;;;3.90;1.50;;;11.40;99.90;;;;;;6178032;28;20053;-88
2024/02/20 12:48:00;;;;;;;5.50;1.83;;;11.40;99.90;;;;;;6174163;28;20074;-89
2024/02/20 12:51:02;;;;;;;4.22;1.58;;;11.40;99.90;;;;;;6198664;28;20050;-89
2024/02/20 12:54:05;;;;;;;2.95;1.33;;;11.60;99.90;;;;;;6172204;28;20524;-89
2024/02/20 12:57:07;;;;;;;3.35;1.30;;;11.70;99.90;;;;;;6195527;28;20145;-89
2024/02/20 13:00:09;;;;;;;5.15;1.23;;;11.80;99.90;;;;;;6156475;28;20514;-90
2024/02/20 13:03:14;;;;;;;2.92;1.15;;;11.80;99.90;;;;;;6196810;28;20050;-91
2024/02/20 13:06:15;;;;;;;4.75;1.17;;;12.20;99.90;;;;;;6265551;23;20506;-91
2024/02/20 13:09:17;;;;;;;4.60;1.10;;;12.50;99.90;;;;;;6198779;28;20100;-90
2024/02/20 13:12:19;;;;;;;4.38;1.35;;;12.80;99.90;;;;;;6173451;28;20102;-91
2024/02/20 13:15:21;;;;;;;3.47;1.02;;;12.60;99.90;;;;;;6171673;28;20051;-89
2024/02/20 13:18:22;;;;;;;2.70;1.10;;;12.70;99.90;;;;;;6173008;28;20062;-94
2024/02/20 13:21:26;;;;;;;2.83;1.00;;;12.90;99.90;;;;;;6197538;28;20066;-90
2024/02/20 13:24:28;;;;;;;2.88;1.05;;;12.80;99.90;;;;;;6174260;28;20063;-92
2024/02/20 13:27:30;;;;;;;2.78;1.00;;;12.90;99.90;;;;;;6193792;28;20069;-92
2024/02/20 13:30:32;;;;;;;3.40;1.15;;;13.40;99.90;;;;;;6162836;28;20058;-89
2024/02/20 13:33:35;;;;;;;2.58;0.90;;;13.70;93.30;;;;;;6174378;28;20070;-86
2024/02/20 13:36:37;;;;;;;4.20;1.00;;;13.60;93.00;;;;;;6202070;28;20104;-88
2024/02/20 13:39:39;;;;;;;5.13;1.00;;;13.60;91.20;;;;;;6172866;28;20134;-91
2024/02/20 13:42:41;;;;;;;2.88;0.88;;;13.60;90.60;;;;;;6191534;28;20054;-90
2024/02/20 13:45:43;;;;;;;2.42;0.80;;;13.60;85.80;;;;;;6157356;28;20062;-88
2024/02/20 13:48:49;;;;;;;2.10;0.80;;;13.80;80.90;;;;;;6176895;28;20047;-89
2024/02/20 13:51:51;;;;;;;1.95;0.70;;;13.80;69.00;;;;;;6201699;28;20417;-89
2024/02/20 13:54:53;;;;;;;2.08;0.60;;;13.90;62.00;;;;;;6176030;28;20498;-87
2024/02/20 13:57:56;;;;;;;3.47;0.70;;;13.90;54.30;;;;;;6179396;28;20058;-87
2024/02/20 14:00:57;;;;;;;2.42;0.80;;;14.10;44.60;;;;;;6176802;28;20066;-87
2024/02/20 14:03:59;;;;;;;3.00;0.80;;;14.10;44.60;;;;;;6197125;28;20050;-84
2024/02/20 14:07:01;;;;;;;4.43;0.85;;;14.20;38.70;;;;;;6196441;28;20122;-85
2024/02/20 14:10:03;;;;;;;2.13;0.75;;;14.10;48.30;;;;;;6185651;28;20085;-87
2024/02/20 14:13:07;;;;;;;4.15;0.80;;;13.90;41.60;;;;;;6179289;28;20069;-84
2024/02/20 14:16:09;;;;;;;2.92;0.80;;;13.90;36.80;;;;;;6176968;28;20105;-84
2024/02/20 14:19:10;;;;;;;2.72;0.68;;;14.20;36.50;;;;;;6199416;28;20582;-90
2024/02/20 14:22:13;;;;;;;3.25;0.90;;;14.40;25.10;;;;;;6188191;28;20502;-85
2024/02/20 14:25:16;;;;;;;2.85;0.75;;;14.30;20.00;;;;;;6192779;28;20074;-86
2024/02/20 14:28:18;;;;;;;3.83;1.00;;;13.90;17.20;;;;;;6179615;28;20484;-90
2024/02/20 14:31:20;;;;;;;2.53;0.95;;;13.90;28.70;;;;;;6178537;28;20086;-89
2024/02/20 14:34:21;;;;;;;2.45;0.80;;;13.70;36.40;;;;;;6199105;28;20065;-86
2024/02/20 14:37:23;;;;;;;7.13;1.02;;;13.90;39.10;;;;;;6184301;28;20061;-81
2024/02/20 14:40:25;;;;;;;5.07;1.00;;;13.90;21.60;;;;;;6184962;28;20074;-82
2024/02/20 14:43:27;;;;;;;3.55;0.90;;;13.70;24.90;;;;;;6166044;28;20046;-92
2024/02/20 14:46:29;;;;;;;6.70;1.10;;;13.70;10.90;;;;;;6191245;28;20054;-91
2024/02/20 14:49:31;;;;;;;2.65;0.70;;;14.00;1.00;;;;;;6175805;28;20093;-84
2024/02/20 14:52:33;;;;;;;4.68;0.82;;;13.90;1.00;;;;;;6187911;28;20046;-86
2024/02/20 14:55:34;;;;;;;4.38;1.05;;;13.60;4.00;;;;;;6172527;28;20065;-84
2024/02/20 14:58:36;;;;;;;3.25;0.90;;;13.30;15.00;;;;;;6177502;28;20138;-92
2024/02/20 15:01:38;;;;;;;5.38;1.35;;;13.40;9.20;;;;;;6177619;28;20105;-92
2024/02/20 15:04:40;;;;;;;6.95;1.25;;;13.70;1.00;;;;;;6178133;28;20165;-93
2024/02/20 15:07:42;;;;;;;4.80;1.15;;;13.50;8.70;;;;;;6190963;28;20333;-83
2024/02/20 15:10:44;;;;;;;4.85;1.13;;;13.40;10.60;;;;;;6179269;28;20180;-93
2024/02/20 15:13:46;;;;;;;6.55;1.30;;;13.20;21.40;;;;;;6180314;28;20074;-83
2024/02/20 15:16:48;;;;;;;5.85;1.30;;;13.20;20.30;;;;;;6196424;28;20184;-91
2024/02/20 15:19:50;;;;;;;6.93;1.42;;;12.90;19.20;;;;;;6178926;28;20055;-83
2024/02/20 15:22:53;;;;;;;8.23;1.52;;;12.90;26.60;;;;;;6194637;28;20145;-86
2024/02/20 15:25:56;;;;;;;7.72;2.00;;;13.00;28.60;;;;;;6182857;28;20054;-85
2024/02/20 15:28:58;;;;;;;10.27;1.55;;;12.80;34.30;;;;;;6180364;28;20053;-81
2024/02/20 15:32:00;;;;;;;7.22;1.73;;;12.70;34.40;;;;;;6186814;28;20056;-90
2024/02/20 15:35:05;;;;;;;8.07;1.70;;;12.50;39.90;;;;;;6177168;28;20073;-88
2024/02/20 15:38:07;;;;;;;8.65;1.80;;;12.60;55.30;;;;;;6180755;28;20055;-85
2024/02/20 15:41:09;;;;;;;8.48;1.60;;;12.30;52.50;;;;;;6173596;28;20065;-85
2024/02/20 15:44:11;;;;;;;8.93;1.50;;;12.30;61.70;;;;;;6171813;28;20125;-89